KMML/MML METAR and TAF weather

Enter ICAO airport designator
Station Type Date Time Source
KMML METAR 2024/04/17 17:56 UTC NOAA

KMML 171756Z AUTO 30021G25KT 10SM BKN023 BKN030 OVC035 11/07 A2980 RMK AO2 PK WND 30028/1736 SLP097 T01110067 10117 20067 51021


Station Type Date Time Source
KMML Decoded METAR 2024/04/17 17:56 UTC NOAA

Marshall, Southwest Minnesota Regional Airport - Marshall/Ryan Field, MN, United States (KMML) 44-27N 095-49W
Apr 17, 2024 - 01:56 PM EDT / 2024.04.17 1756 UTC
Wind: from the WNW (300 degrees) at 24 MPH (21 KT) gusting to 29 MPH (25 KT):0
Visibility: 10 mile(s):0
Sky conditions: overcast
Temperature: 52.0 F (11.1 C)
Dew Point: 44.1 F (6.7 C)
Relative Humidity: 74%
Pressure (altimeter): 29.8 in. Hg (1009 hPa)
Pressure tendency: 0.06 inches (2.1 hPa) higher than three hours ago
ob: KMML 171756Z AUTO 30021G25KT 10SM BKN023 BKN030 OVC035 11/07 A2980 RMK AO2 PK WND 30028/1736 SLP097 T01110067 10117 20067 51021
cycle: 18

Station Type Date Time Source
KMML TAF UTC NOAA

Error!

Example: see airport list